»·PEaware :: FJS1399 KNYL-KSNA

FJS1399 :: KNYL-KSNA

FLIGHT INFORMATION

Flight Status: Arrived
Operator: Unknown
More flights by this operator :: More flights under this callsign
Pilot: David C. (16084)
Aircraft: BOMBARDIER BD-100 CHALLENGER 300
(CL30)
More flights by this aircraft type
Origin: KNYL Yuma MCAS/Yuma Intl
United States
Destination: KSNA John Wayne-Orange Co
United States
More flights between these airports :: More routes between these airports
Route: +HEEDS2 HEEDS JLI V208 OCN V23 SLI
File this flight plan on PilotEdge
Remarks:
Altitude:
(Current/Filed)
26,000ft
Speed:
(Current/Filed)
443kts
Departed: 06-Dec-18 11:34 AM
Arrived: 06-Dec-18 12:18 PM
Distance/Time
Traveled:
175nm/0:44
Distance/Time
To Go:
Arrived

Flight Plot

Page will automatically refresh every two minutes.

Flight plan parsing failed; only flown route is shown


Map Options




Map Legend


Flown Route
Filed Route
Departure Airport
Arrival Airport
Navaid (VOR, NDB)
Fix

Horizontal Profiles

Position Reports

Time Latitude Longitude Heading Altitude Ground
Speed
06-Dec-18 11:04 32.660393 -114.610470 178 219ft 0kts
06-Dec-18 11:05 32.660393 -114.610470 178 219ft 0kts
06-Dec-18 11:06 32.660393 -114.610470 178 219ft 0kts
06-Dec-18 11:07 32.660393 -114.610470 178 219ft 0kts
06-Dec-18 11:08 32.660393 -114.610470 178 219ft 0kts
06-Dec-18 11:09 32.660393 -114.610470 178 219ft 0kts
06-Dec-18 11:10 32.660393 -114.610470 178 219ft 0kts
06-Dec-18 11:11 32.660393 -114.610470 178 219ft 0kts
06-Dec-18 11:12 32.660393 -114.610470 178 219ft 0kts
06-Dec-18 11:13 32.660393 -114.610470 178 219ft 0kts
06-Dec-18 11:14 32.660393 -114.610470 178 219ft 0kts
06-Dec-18 11:15 32.660393 -114.610470 178 219ft 0kts
06-Dec-18 11:16 32.660393 -114.610470 178 219ft 0kts
06-Dec-18 11:17 32.660393 -114.610470 178 219ft 0kts
06-Dec-18 11:18 32.660393 -114.610470 178 219ft 0kts
06-Dec-18 11:19 32.660392 -114.610470 178 219ft 0kts
06-Dec-18 11:20 32.660392 -114.610470 178 219ft 0kts
06-Dec-18 11:21 32.660392 -114.610470 178 219ft 0kts
06-Dec-18 11:22 32.660392 -114.610470 178 219ft 0kts
06-Dec-18 11:23 32.660392 -114.610470 178 219ft 0kts
06-Dec-18 11:24 32.660249 -114.610355 96 219ft 5kts
06-Dec-18 11:25 32.660867 -114.609461 7 219ft 0kts
06-Dec-18 11:27 32.660931 -114.609450 7 219ft 2kts
06-Dec-18 11:28 32.661841 -114.606450 90 219ft 16kts
06-Dec-18 11:29 32.665208 -114.605566 0 219ft 19kts
06-Dec-18 11:30 32.667263 -114.603029 91 219ft 16kts
06-Dec-18 11:31 32.667334 -114.596033 88 219ft 26kts
06-Dec-18 11:32 32.667367 -114.592481 88 219ft 0kts
06-Dec-18 11:33 32.667367 -114.592481 88 219ft 0kts
06-Dec-18 11:34 32.662273 -114.596993 223 219ft 135kts
06-Dec-18 11:35 32.619801 -114.616376 124 3445ft 207kts
06-Dec-18 11:36 32.651281 -114.578984 334 5005ft 217kts
06-Dec-18 11:37 32.702533 -114.615196 297 4996ft 217kts
06-Dec-18 11:38 32.712735 -114.685762 279 7073ft 223kts
06-Dec-18 11:39 32.725103 -114.769107 279 8002ft 282kts
06-Dec-18 11:40 32.741197 -114.859851 285 8268ft 279kts
06-Dec-18 11:41 32.762578 -114.950616 285 12007ft 304kts
06-Dec-18 11:42 32.788027 -115.057609 281 16199ft 367kts
06-Dec-18 11:43 32.816479 -115.177866 280 20337ft 391kts
06-Dec-18 11:44 32.845957 -115.303013 279 23704ft 406kts
06-Dec-18 11:45 32.876257 -115.432222 278 26113ft 424kts
06-Dec-18 11:46 32.907816 -115.567239 278 26113ft 423kts
06-Dec-18 11:47 32.936025 -115.688593 278 26126ft 423kts
06-Dec-18 11:48 32.966969 -115.822370 278 26126ft 423kts
06-Dec-18 11:48 32.992912 -115.935107 278 26125ft 426kts
06-Dec-18 11:50 33.029344 -116.094275 278 26124ft 430kts
06-Dec-18 11:50 33.055084 -116.207260 278 25295ft 417kts
06-Dec-18 11:52 33.090573 -116.364134 279 24046ft 426kts
06-Dec-18 11:52 33.113629 -116.466457 279 24011ft 429kts
06-Dec-18 11:53 33.142389 -116.604057 273 24018ft 426kts
06-Dec-18 11:55 33.162351 -116.764170 272 24016ft 424kts
06-Dec-18 11:55 33.176463 -116.879505 272 23616ft 414kts
06-Dec-18 11:56 33.192068 -117.008237 272 20736ft 369kts
06-Dec-18 11:57 33.206029 -117.124922 273 17520ft 351kts
06-Dec-18 11:58 33.219222 -117.235875 273 14348ft 337kts
06-Dec-18 11:59 33.232393 -117.347787 273 11201ft 351kts
06-Dec-18 12:00 33.274715 -117.450316 309 11031ft 365kts
06-Dec-18 12:01 33.345253 -117.537696 311 11028ft 366kts
06-Dec-18 12:02 33.414330 -117.619731 312 9853ft 312kts
06-Dec-18 12:03 33.471538 -117.687112 313 7363ft 282kts
06-Dec-18 12:04 33.526219 -117.750017 329 5024ft 270kts
06-Dec-18 12:05 33.600746 -117.753143 1 5001ft 273kts
06-Dec-18 12:06 33.675045 -117.739580 11 5006ft 271kts
06-Dec-18 12:07 33.747191 -117.719622 21 5012ft 253kts
06-Dec-18 12:08 33.808482 -117.693876 21 5022ft 231kts
06-Dec-18 12:09 33.866424 -117.670216 18 4146ft 207kts
06-Dec-18 12:10 33.887465 -117.716522 231 3684ft 196kts
06-Dec-18 12:11 33.848972 -117.758469 204 3005ft 173kts
06-Dec-18 12:12 33.810547 -117.782812 204 2893ft 154kts
06-Dec-18 12:13 33.773637 -117.806522 204 2117ft 149kts
06-Dec-18 12:14 33.741182 -117.827241 205 1378ft 124kts
06-Dec-18 12:15 33.710995 -117.846418 205 736ft 121kts
06-Dec-18 12:16 33.681403 -117.865216 206 105ft 112kts
06-Dec-18 12:17 33.669345 -117.871799 137 63ft 0kts
06-Dec-18 12:18 33.669345 -117.871799 137 63ft 0kts
06-Dec-18 12:19 33.669345 -117.871799 137 63ft 0kts
06-Dec-18 12:20 33.670698 -117.869326 41 63ft 20kts
06-Dec-18 12:21 33.671298 -117.867465 105 63ft 0kts
06-Dec-18 12:22 33.671298 -117.867465 105 63ft 0kts

Navigation Log

Ident Type
Flight plan parsing failed, navigation log unavailable